Time;durP1;ratioP1;P1;durP2;ratioP2;P2;SDS_P1;SDS_P2;PMS_P1;PMS_P2;Temp;Humidity;BMP_temperature;BMP_pressure;BME280_temperature;BME280_humidity;BME280_pressure;Samples;Min_cycle;Max_cycle;Signal;HPM_P1;HPM_P2
2023/07/15 00:00:47;;;;;;;9.10;6.70;;;;;;;;;;108157;1248;24371;-80
2023/07/15 00:03:31;;;;;;;10.00;6.90;;;;;;;;;;108162;1250;22943;-80
2023/07/15 00:05:57;;;;;;;10.90;6.30;;;;;;;;;;108142;1248;23351;-80
2023/07/15 00:08:24;;;;;;;11.10;7.00;;;;;;;;;;108040;1247;24225;-80
2023/07/15 00:10:50;;;;;;;10.20;7.10;;;;;;;;;;107980;1247;22521;-79
2023/07/15 00:13:17;;;;;;;16.20;7.10;;;;;;;;;;109096;1248;22292;-79
2023/07/15 00:15:44;;;;;;;13.20;8.30;;;;;;;;;;111093;1248;22532;-81
2023/07/15 00:18:12;;;;;;;10.30;6.80;;;;;;;;;;111183;1246;22138;-80
2023/07/15 00:20:39;;;;;;;12.60;6.80;;;;;;;;;;111166;1247;22330;-80
2023/07/15 00:23:18;;;;;;;11.20;7.30;;;;;;;;;;111177;1247;22345;-80
2023/07/15 00:25:45;;;;;;;11.50;6.80;;;;;;;;;;109553;1248;22521;-80
2023/07/15 00:28:11;;;;;;;11.50;6.90;;;;;;;;;;108736;1247;22514;-80
2023/07/15 00:30:37;;;;;;;10.10;6.70;;;;;;;;;;108717;1248;22581;-80
2023/07/15 00:33:05;;;;;;;11.60;6.70;;;;;;;;;;108773;1248;22536;-80
2023/07/15 00:35:31;;;;;;;10.30;6.40;;;;;;;;;;108739;1248;22536;-80
2023/07/15 00:37:58;;;;;;;9.70;6.90;;;;;;;;;;108546;1248;22700;-80
2023/07/15 00:40:27;;;;;;;11.40;6.80;;;;;;;;;;108697;1250;22535;-81
2023/07/15 00:43:13;;;;;;;8.50;6.40;;;;;;;;;;108448;1251;23195;-80
2023/07/15 00:45:39;;;;;;;9.80;6.60;;;;;;;;;;108755;1250;22725;-81
2023/07/15 00:48:08;;;;;;;8.90;6.60;;;;;;;;;;108668;1248;22528;-80
2023/07/15 00:50:38;;;;;;;;;;;;;;;;;;108735;1248;22582;-81
2023/07/15 00:53:06;;;;;;;10.50;6.20;;;;;;;;;;108771;1248;25493;-80
2023/07/15 00:55:32;;;;;;;7.30;6.10;;;;;;;;;;108661;1248;22534;-80
2023/07/15 00:57:59;;;;;;;10.30;5.60;;;;;;;;;;108715;1248;25703;-80
2023/07/15 01:00:25;;;;;;;8.80;5.90;;;;;;;;;;108721;1248;22515;-80
2023/07/15 01:02:52;;;;;;;11.30;6.00;;;;;;;;;;108542;1253;25494;-80
2023/07/15 01:05:18;;;;;;;7.90;6.40;;;;;;;;;;108525;1248;22572;-81
2023/07/15 01:07:45;;;;;;;10.50;6.50;;;;;;;;;;108757;1247;23114;-80
2023/07/15 01:10:12;;;;;;;10.40;6.30;;;;;;;;;;108510;1248;24224;-81
2023/07/15 01:12:38;;;;;;;10.40;6.20;;;;;;;;;;108831;1247;23200;-80
2023/07/15 01:15:06;;;;;;;9.10;5.90;;;;;;;;;;108463;1248;23182;-80
2023/07/15 01:17:33;;;;;;;10.50;7.20;;;;;;;;;;108667;1248;22715;-80
2023/07/15 01:19:59;;;;;;;11.20;6.30;;;;;;;;;;108719;1247;24273;-80
2023/07/15 01:22:26;;;;;;;7.80;5.80;;;;;;;;;;108725;1248;23769;-80
2023/07/15 01:24:52;;;;;;;10.30;6.80;;;;;;;;;;108765;1248;25588;-80
2023/07/15 01:27:18;;;;;;;7.60;6.40;;;;;;;;;;108705;1248;23235;-80
2023/07/15 01:29:45;;;;;;;11.50;6.70;;;;;;;;;;108653;1247;22614;-80
2023/07/15 01:32:11;;;;;;;7.00;5.60;;;;;;;;;;108691;1250;23305;-81
2023/07/15 01:34:38;;;;;;;9.10;6.70;;;;;;;;;;108740;1246;22531;-81
2023/07/15 01:37:04;;;;;;;11.40;5.60;;;;;;;;;;108786;1248;23276;-81
2023/07/15 01:39:31;;;;;;;9.70;5.40;;;;;;;;;;108535;1248;22581;-81
2023/07/15 01:41:58;;;;;;;6.70;5.50;;;;;;;;;;108731;1250;22522;-81
2023/07/15 01:44:24;;;;;;;7.80;5.80;;;;;;;;;;108750;1248;23072;-80
2023/07/15 01:46:51;;;;;;;6.60;4.70;;;;;;;;;;108686;1248;22666;-81
2023/07/15 01:49:17;;;;;;;10.90;6.00;;;;;;;;;;108758;1248;22581;-80
2023/07/15 01:51:44;;;;;;;9.40;5.80;;;;;;;;;;108554;1247;22651;-81
2023/07/15 01:54:10;;;;;;;7.40;5.50;;;;;;;;;;108722;1248;24101;-81
2023/07/15 01:56:37;;;;;;;8.60;5.90;;;;;;;;;;108758;1248;23358;-81
2023/07/15 01:59:03;;;;;;;8.70;6.10;;;;;;;;;;108717;1248;24336;-80
2023/07/15 02:01:29;;;;;;;8.00;5.60;;;;;;;;;;108693;1247;24346;-81
2023/07/15 02:03:56;;;;;;;10.20;6.10;;;;;;;;;;108755;1248;22536;-82
2023/07/15 02:06:22;;;;;;;10.90;5.90;;;;;;;;;;108699;1247;22529;-81
2023/07/15 02:08:49;;;;;;;7.40;5.20;;;;;;;;;;108589;1247;22671;-81
2023/07/15 02:11:15;;;;;;;6.70;5.20;;;;;;;;;;108571;1248;22539;-81
2023/07/15 02:13:41;;;;;;;8.30;5.60;;;;;;;;;;108701;1247;24227;-80
2023/07/15 02:16:08;;;;;;;8.70;6.50;;;;;;;;;;108715;1250;22539;-81
2023/07/15 02:18:35;;;;;;;11.80;6.70;;;;;;;;;;108763;1248;22543;-80
2023/07/15 02:21:01;;;;;;;7.80;6.20;;;;;;;;;;108738;1248;23322;-80
2023/07/15 02:23:28;;;;;;;7.60;5.90;;;;;;;;;;108749;1246;24249;-81
2023/07/15 02:25:55;;;;;;;8.10;5.70;;;;;;;;;;108777;1250;22602;-80
2023/07/15 02:28:26;;;;;;;11.00;5.80;;;;;;;;;;108778;1247;22570;-80
2023/07/15 02:30:53;;;;;;;8.90;5.50;;;;;;;;;;108750;1248;22590;-81
2023/07/15 02:33:19;;;;;;;7.70;5.30;;;;;;;;;;108745;1248;22526;-80
2023/07/15 02:35:46;;;;;;;10.20;6.20;;;;;;;;;;108552;1253;25268;-81
2023/07/15 02:38:13;;;;;;;12.80;6.40;;;;;;;;;;108721;1247;25500;-80
2023/07/15 02:40:39;;;;;;;7.20;5.70;;;;;;;;;;108768;1248;23309;-80
2023/07/15 02:43:07;;;;;;;11.20;6.50;;;;;;;;;;108798;1248;22537;-80
2023/07/15 02:45:35;;;;;;;7.20;6.10;;;;;;;;;;108658;1250;22513;-80
2023/07/15 02:48:01;;;;;;;7.10;5.10;;;;;;;;;;109163;1246;22457;-81
2023/07/15 02:50:28;;;;;;;11.70;6.10;;;;;;;;;;111158;1247;22368;-81
2023/07/15 02:52:54;;;;;;;9.40;6.70;;;;;;;;;;111178;1248;22296;-81
2023/07/15 02:55:21;;;;;;;10.40;7.20;;;;;;;;;;111170;1246;22578;-81
2023/07/15 02:57:47;;;;;;;11.00;5.60;;;;;;;;;;111166;1246;23230;-81
2023/07/15 03:00:15;;;;;;;12.30;6.10;;;;;;;;;;111159;1250;22540;-81
2023/07/15 03:02:44;;;;;;;7.80;5.30;;;;;;;;;;109025;1248;22524;-81
2023/07/15 03:05:11;;;;;;;8.90;5.20;;;;;;;;;;111180;1247;22629;-82
2023/07/15 03:07:37;;;;;;;10.40;6.40;;;;;;;;;;111160;1247;22271;-81
2023/07/15 03:10:04;;;;;;;6.70;5.60;;;;;;;;;;110988;1248;22435;-81
2023/07/15 03:12:31;;;;;;;9.10;6.30;;;;;;;;;;110536;1248;25294;-81
2023/07/15 03:14:57;;;;;;;10.40;6.40;;;;;;;;;;108722;1248;24395;-81
2023/07/15 03:17:23;;;;;;;7.20;5.40;;;;;;;;;;108768;1247;22568;-80
2023/07/15 03:19:50;;;;;;;13.20;5.80;;;;;;;;;;108675;1248;22542;-81
2023/07/15 03:22:16;;;;;;;9.90;5.40;;;;;;;;;;108760;1247;23085;-80
2023/07/15 03:24:43;;;;;;;10.50;6.50;;;;;;;;;;108736;1248;22634;-79
2023/07/15 03:27:09;;;;;;;13.20;6.70;;;;;;;;;;108520;1248;25498;-79
2023/07/15 03:29:36;;;;;;;11.60;6.40;;;;;;;;;;108710;1247;26037;-80
2023/07/15 03:32:02;;;;;;;9.30;6.40;;;;;;;;;;108731;1250;23379;-80
2023/07/15 03:34:29;;;;;;;8.40;7.20;;;;;;;;;;108722;1250;22636;-80
2023/07/15 03:36:55;;;;;;;8.40;6.60;;;;;;;;;;108745;1248;24229;-80
2023/07/15 03:39:23;;;;;;;9.40;5.50;;;;;;;;;;108691;1248;23379;-80
2023/07/15 03:41:49;;;;;;;8.20;6.20;;;;;;;;;;108746;1248;25806;-80
2023/07/15 03:44:16;;;;;;;10.60;6.00;;;;;;;;;;108691;1248;22563;-81
2023/07/15 03:46:42;;;;;;;12.60;6.50;;;;;;;;;;108711;1247;23032;-81
2023/07/15 03:49:08;;;;;;;10.60;6.10;;;;;;;;;;108772;1248;22704;-79
2023/07/15 03:51:35;;;;;;;9.20;5.90;;;;;;;;;;108736;1247;22593;-81
2023/07/15 03:54:01;;;;;;;11.10;6.60;;;;;;;;;;108698;1250;23231;-80
2023/07/15 03:56:28;;;;;;;6.70;5.90;;;;;;;;;;108700;1250;25569;-80
2023/07/15 03:58:55;;;;;;;12.10;6.50;;;;;;;;;;111181;1247;22494;-81
2023/07/15 04:01:21;;;;;;;7.80;5.90;;;;;;;;;;110170;1246;22729;-80
2023/07/15 04:03:48;;;;;;;8.20;6.10;;;;;;;;;;108677;1248;22647;-81
2023/07/15 04:06:14;;;;;;;13.00;6.40;;;;;;;;;;108566;1248;24183;-80
2023/07/15 04:08:40;;;;;;;11.60;6.30;;;;;;;;;;108598;1250;22520;-80
2023/07/15 04:11:08;;;;;;;7.10;5.70;;;;;;;;;;108586;1247;23036;-80
2023/07/15 04:13:34;;;;;;;11.30;6.20;;;;;;;;;;108702;1248;23254;-81
2023/07/15 04:16:01;;;;;;;10.00;6.80;;;;;;;;;;108691;1247;22546;-80
2023/07/15 04:18:27;;;;;;;9.20;7.40;;;;;;;;;;108652;1248;25309;-81
2023/07/15 04:20:54;;;;;;;9.60;5.60;;;;;;;;;;108628;1247;22987;-80
2023/07/15 04:23:20;;;;;;;9.80;6.00;;;;;;;;;;108474;1248;22569;-80
2023/07/15 04:25:48;;;;;;;7.10;6.00;;;;;;;;;;108642;1250;55940;-80
2023/07/15 04:28:14;;;;;;;7.50;5.20;;;;;;;;;;108873;1250;22588;-81
2023/07/15 04:30:40;;;;;;;11.30;5.20;;;;;;;;;;108693;1247;23244;-81
2023/07/15 04:33:07;;;;;;;5.50;5.00;;;;;;;;;;108710;1247;23495;-81
2023/07/15 04:35:34;;;;;;;7.10;5.20;;;;;;;;;;108688;1247;22542;-81
2023/07/15 04:38:00;;;;;;;6.80;5.50;;;;;;;;;;108651;1248;22545;-81
2023/07/15 04:40:26;;;;;;;9.00;5.50;;;;;;;;;;108686;1248;25223;-80
2023/07/15 04:42:53;;;;;;;7.50;5.50;;;;;;;;;;108709;1247;25296;-81
2023/07/15 04:45:19;;;;;;;9.80;5.50;;;;;;;;;;108664;1247;22563;-81
2023/07/15 04:47:46;;;;;;;7.40;5.70;;;;;;;;;;108739;1247;23207;-82
2023/07/15 04:50:12;;;;;;;6.50;5.60;;;;;;;;;;108682;1248;24195;-81
2023/07/15 04:52:38;;;;;;;9.60;5.50;;;;;;;;;;108699;1247;36864;-80
2023/07/15 04:55:05;;;;;;;10.20;6.10;;;;;;;;;;108706;1247;22525;-81
2023/07/15 04:57:31;;;;;;;11.20;5.60;;;;;;;;;;108718;1247;24237;-80
2023/07/15 04:59:57;;;;;;;10.90;6.20;;;;;;;;;;108745;1248;24214;-80
2023/07/15 05:02:24;;;;;;;9.70;5.40;;;;;;;;;;108770;1247;22585;-80
2023/07/15 05:04:50;;;;;;;9.70;5.60;;;;;;;;;;108259;1250;44126;-81
2023/07/15 05:07:17;;;;;;;9.70;5.50;;;;;;;;;;108273;1251;24187;-81
2023/07/15 05:09:43;;;;;;;14.10;5.30;;;;;;;;;;108482;1248;22648;-81
2023/07/15 05:12:10;;;;;;;7.50;5.40;;;;;;;;;;108492;1247;22540;-80
2023/07/15 05:14:37;;;;;;;13.30;6.00;;;;;;;;;;108416;1248;25363;-81
2023/07/15 05:17:05;;;;;;;9.70;5.90;;;;;;;;;;108453;1248;22546;-81
2023/07/15 05:19:32;;;;;;;6.20;5.40;;;;;;;;;;108444;1247;25458;-81
2023/07/15 05:21:58;;;;;;;9.20;6.00;;;;;;;;;;108426;1248;44112;-80
2023/07/15 05:24:28;;;;;;;10.40;6.40;;;;;;;;;;108469;1251;23240;-80
2023/07/15 05:26:55;;;;;;;10.30;6.00;;;;;;;;;;108445;1248;25504;-80
2023/07/15 05:29:22;;;;;;;12.10;7.20;;;;;;;;;;108470;1247;24324;-80
2023/07/15 05:31:49;;;;;;;8.20;6.30;;;;;;;;;;108486;1247;25363;-81
2023/07/15 05:34:15;;;;;;;12.40;7.60;;;;;;;;;;108455;1247;22553;-81
2023/07/15 05:36:42;;;;;;;18.70;13.70;;;;;;;;;;108453;1248;22528;-81
2023/07/15 05:39:08;;;;;;;8.50;6.90;;;;;;;;;;108440;1248;22568;-82
2023/07/15 05:41:34;;;;;;;8.70;5.30;;;;;;;;;;108473;1248;26607;-80
2023/07/15 05:44:01;;;;;;;7.90;6.10;;;;;;;;;;108440;1247;22583;-81
2023/07/15 05:46:27;;;;;;;7.40;6.60;;;;;;;;;;108491;1247;22522;-82
2023/07/15 05:48:54;;;;;;;8.60;6.50;;;;;;;;;;108442;1247;24231;-80
2023/07/15 05:51:20;;;;;;;8.20;6.50;;;;;;;;;;108487;1247;22527;-81
2023/07/15 05:53:47;;;;;;;11.10;8.40;;;;;;;;;;108532;1247;24081;-81
2023/07/15 05:56:13;;;;;;;10.80;7.20;;;;;;;;;;108494;1248;23000;-81
2023/07/15 05:58:39;;;;;;;8.40;6.00;;;;;;;;;;108500;1251;23268;-81
2023/07/15 06:01:06;;;;;;;7.10;5.00;;;;;;;;;;108484;1247;23653;-80
2023/07/15 06:03:32;;;;;;;5.00;4.50;;;;;;;;;;108449;1247;22634;-81
2023/07/15 06:06:02;;;;;;;7.10;5.70;;;;;;;;;;108493;1248;22531;-81
2023/07/15 06:08:28;;;;;;;7.30;5.20;;;;;;;;;;108328;1250;25724;-80
2023/07/15 06:10:55;;;;;;;7.70;5.10;;;;;;;;;;108325;1247;22594;-81
2023/07/15 06:13:21;;;;;;;7.40;4.90;;;;;;;;;;108431;1248;22602;-81
2023/07/15 06:15:50;;;;;;;7.30;5.50;;;;;;;;;;108435;1247;22615;-80
2023/07/15 06:18:17;;;;;;;7.00;5.40;;;;;;;;;;108469;1248;22522;-80
2023/07/15 06:20:46;;;;;;;8.10;4.70;;;;;;;;;;108412;1248;23684;-81
2023/07/15 06:23:12;;;;;;;8.70;5.80;;;;;;;;;;108418;1247;22531;-82
2023/07/15 06:25:39;;;;;;;9.10;5.20;;;;;;;;;;108448;1247;22555;-81
2023/07/15 06:28:05;;;;;;;9.00;5.00;;;;;;;;;;108418;1247;22634;-82
2023/07/15 06:30:32;;;;;;;6.40;5.00;;;;;;;;;;108408;1247;25496;-80
2023/07/15 06:32:58;;;;;;;8.90;5.00;;;;;;;;;;108391;1247;22562;-82
2023/07/15 06:35:24;;;;;;;5.40;4.20;;;;;;;;;;108457;1248;22534;-81
2023/07/15 06:37:51;;;;;;;6.10;4.80;;;;;;;;;;108474;1247;22543;-82
2023/07/15 06:40:17;;;;;;;5.70;4.40;;;;;;;;;;108417;1247;22531;-81
2023/07/15 06:42:44;;;;;;;9.00;4.40;;;;;;;;;;108501;1247;22630;-81
2023/07/15 06:45:11;;;;;;;6.20;4.00;;;;;;;;;;108385;1247;25303;-81
2023/07/15 06:47:38;;;;;;;7.10;4.90;;;;;;;;;;108439;1249;57668;-82
2023/07/15 06:50:04;;;;;;;7.80;4.10;;;;;;;;;;109047;1247;24196;-81
2023/07/15 06:52:31;;;;;;;8.20;4.40;;;;;;;;;;108443;1247;22603;-82
2023/07/15 06:54:57;;;;;;;10.80;5.10;;;;;;;;;;108487;1247;22539;-82
2023/07/15 06:57:24;;;;;;;4.60;3.90;;;;;;;;;;108537;1251;23150;-82
2023/07/15 06:59:51;;;;;;;8.90;4.50;;;;;;;;;;108424;1251;25469;-82
2023/07/15 07:02:17;;;;;;;7.50;4.50;;;;;;;;;;108387;1247;23208;-82
2023/07/15 07:04:43;;;;;;;9.00;4.80;;;;;;;;;;108571;1248;24189;-81
2023/07/15 07:07:10;;;;;;;9.70;7.50;;;;;;;;;;108563;1248;22547;-80
2023/07/15 07:09:36;;;;;;;8.20;7.40;;;;;;;;;;108325;1248;143017;-80
2023/07/15 07:12:03;;;;;;;7.30;4.00;;;;;;;;;;108392;1248;22521;-81
2023/07/15 07:14:29;;;;;;;6.20;4.70;;;;;;;;;;108512;1247;22543;-81
2023/07/15 07:16:55;;;;;;;14.60;8.40;;;;;;;;;;108468;1247;22563;-81
2023/07/15 07:19:22;;;;;;;5.40;4.70;;;;;;;;;;108416;1247;25345;-80
2023/07/15 07:21:48;;;;;;;10.50;5.20;;;;;;;;;;108421;1247;22591;-80
2023/07/15 07:24:15;;;;;;;11.40;7.40;;;;;;;;;;108417;1248;24366;-81
2023/07/15 07:26:42;;;;;;;8.00;4.60;;;;;;;;;;108377;1248;22561;-81
2023/07/15 07:29:08;;;;;;;4.90;4.10;;;;;;;;;;108445;1248;22647;-82
2023/07/15 07:31:34;;;;;;;12.10;5.00;;;;;;;;;;108464;1248;22544;-82
2023/07/15 07:34:01;;;;;;;6.30;3.10;;;;;;;;;;108433;1248;25313;-82
2023/07/15 07:36:27;;;;;;;8.10;3.40;;;;;;;;;;108514;1248;22610;-81
2023/07/15 07:38:53;;;;;;;6.50;3.30;;;;;;;;;;108458;1248;22546;-81
2023/07/15 07:41:20;;;;;;;4.30;2.90;;;;;;;;;;108439;1248;22528;-82
2023/07/15 07:43:46;;;;;;;7.10;3.40;;;;;;;;;;108473;1248;22551;-82
2023/07/15 07:46:13;;;;;;;4.90;2.30;;;;;;;;;;108447;1251;22567;-80
2023/07/15 07:48:40;;;;;;;5.80;2.60;;;;;;;;;;108408;1251;22550;-80
2023/07/15 07:51:07;;;;;;;6.20;2.70;;;;;;;;;;108280;1251;22524;-80
2023/07/15 07:53:33;;;;;;;5.40;2.60;;;;;;;;;;108399;1248;23904;-81
2023/07/15 07:56:00;;;;;;;5.90;2.90;;;;;;;;;;109113;1248;25344;-82
2023/07/15 07:58:26;;;;;;;4.00;2.70;;;;;;;;;;108441;1248;24186;-81
2023/07/15 08:00:53;;;;;;;3.80;2.20;;;;;;;;;;108431;1251;23404;-81
2023/07/15 08:03:19;;;;;;;5.40;2.40;;;;;;;;;;108425;1248;22999;-81
2023/07/15 08:05:46;;;;;;;4.70;2.80;;;;;;;;;;108425;1248;24369;-81
2023/07/15 08:08:12;;;;;;;3.70;2.30;;;;;;;;;;108441;1247;25385;-82
2023/07/15 08:10:39;;;;;;;2.60;1.90;;;;;;;;;;108404;1247;25307;-81
2023/07/15 08:13:06;;;;;;;7.40;2.30;;;;;;;;;;108467;1248;22925;-81
2023/07/15 08:15:33;;;;;;;5.50;2.50;;;;;;;;;;108437;1251;22515;-83
2023/07/15 08:18:00;;;;;;;4.10;2.70;;;;;;;;;;108411;1248;53226;-81
2023/07/15 08:20:26;;;;;;;5.80;2.30;;;;;;;;;;108411;1247;25414;-82
2023/07/15 08:22:52;;;;;;;2.80;2.50;;;;;;;;;;108258;1247;59109;-80
2023/07/15 08:25:19;;;;;;;4.50;2.20;;;;;;;;;;108392;1247;22563;-80
2023/07/15 08:27:45;;;;;;;8.10;2.50;;;;;;;;;;108474;1248;22525;-81
2023/07/15 08:30:12;;;;;;;3.70;2.00;;;;;;;;;;108427;1248;23254;-83
2023/07/15 08:32:38;;;;;;;3.40;2.00;;;;;;;;;;108507;1248;22519;-81
2023/07/15 08:35:05;;;;;;;2.00;1.60;;;;;;;;;;108498;1248;22528;-81
2023/07/15 08:37:32;;;;;;;3.60;2.20;;;;;;;;;;108327;1247;60294;-81
2023/07/15 08:39:58;;;;;;;3.70;1.90;;;;;;;;;;108374;1248;55161;-81
2023/07/15 08:42:24;;;;;;;4.50;2.30;;;;;;;;;;108519;1248;25324;-83
2023/07/15 08:44:51;;;;;;;4.30;2.00;;;;;;;;;;108388;1247;25438;-82
2023/07/15 08:47:24;;;;;;;5.30;1.90;;;;;;;;;;108459;1248;22671;-83
2023/07/15 08:49:52;;;;;;;4.50;1.80;;;;;;;;;;108384;1249;22522;-82
2023/07/15 08:52:19;;;;;;;2.30;1.80;;;;;;;;;;108396;1247;23042;-83
2023/07/15 08:54:47;;;;;;;2.20;1.80;;;;;;;;;;108017;1247;58342;-81
2023/07/15 08:57:13;;;;;;;;;;;;;;;;;;107599;1247;60428;-83
2023/07/15 08:59:39;;;;;;;2.80;2.10;;;;;;;;;;107594;1251;60469;-84
2023/07/15 09:02:06;;;;;;;4.40;2.40;;;;;;;;;;107852;1247;60454;-84
2023/07/15 09:04:33;;;;;;;3.50;1.90;;;;;;;;;;107919;1247;59869;-85
2023/07/15 09:07:00;;;;;;;2.60;2.10;;;;;;;;;;107905;1248;60426;-83
2023/07/15 09:09:30;;;;;;;4.50;2.00;;;;;;;;;;107919;1248;58993;-83
2023/07/15 09:11:59;;;;;;;3.50;2.20;;;;;;;;;;107895;1248;60434;-82
2023/07/15 09:14:25;;;;;;;4.80;2.60;;;;;;;;;;107709;1247;60348;-82
2023/07/15 09:16:52;;;;;;;5.10;3.70;;;;;;;;;;107702;1248;60499;-82
2023/07/15 09:19:18;;;;;;;5.60;3.50;;;;;;;;;;107700;1247;58956;-83
2023/07/15 09:22:02;;;;;;;4.40;2.30;;;;;;;;;;107638;1248;60438;-82
2023/07/15 09:24:28;;;;;;;3.30;2.50;;;;;;;;;;107598;1248;60406;-83
2023/07/15 09:26:55;;;;;;;2.70;1.70;;;;;;;;;;107639;1251;59055;-83
2023/07/15 09:29:21;;;;;;;2.90;1.90;;;;;;;;;;107551;1247;60402;-83
2023/07/15 09:31:48;;;;;;;3.70;1.90;;;;;;;;;;107671;1247;60526;-83
2023/07/15 09:34:14;;;;;;;3.40;1.80;;;;;;;;;;107612;1247;60404;-83
2023/07/15 09:36:40;;;;;;;3.20;2.20;;;;;;;;;;107599;1248;60435;-84
2023/07/15 09:39:13;;;;;;;3.80;2.30;;;;;;;;;;107597;1248;60309;-84
2023/07/15 09:41:40;;;;;;;4.00;2.60;;;;;;;;;;107592;1248;60542;-84
2023/07/15 09:44:07;;;;;;;4.30;2.20;;;;;;;;;;107520;1248;60445;-84
2023/07/15 09:46:34;;;;;;;3.10;1.70;;;;;;;;;;107613;1248;60416;-82
2023/07/15 09:49:00;;;;;;;3.80;1.90;;;;;;;;;;107557;1247;60419;-81
2023/07/15 09:51:26;;;;;;;2.70;2.20;;;;;;;;;;107805;1251;60429;-81
2023/07/15 09:53:53;;;;;;;4.70;1.60;;;;;;;;;;107579;1248;60547;-83
2023/07/15 09:56:26;;;;;;;3.80;1.90;;;;;;;;;;107611;1252;60658;-84
2023/07/15 09:58:54;;;;;;;2.60;1.90;;;;;;;;;;107556;1247;60274;-82
2023/07/15 10:01:26;;;;;;;5.50;1.90;;;;;;;;;;107645;1247;60443;-83
2023/07/15 10:03:53;;;;;;;2.20;1.60;;;;;;;;;;107622;1247;60508;-84
2023/07/15 10:06:19;;;;;;;3.70;1.60;;;;;;;;;;107744;1250;60405;-82
2023/07/15 10:08:46;;;;;;;2.80;1.60;;;;;;;;;;107587;1251;60618;-84
2023/07/15 10:11:13;;;;;;;3.00;2.00;;;;;;;;;;107655;1250;58853;-82
2023/07/15 10:13:40;;;;;;;3.10;1.80;;;;;;;;;;107561;1248;60495;-82
2023/07/15 10:16:06;;;;;;;4.40;2.00;;;;;;;;;;107520;1248;59122;-82
2023/07/15 10:18:32;;;;;;;3.60;2.10;;;;;;;;;;107572;1247;60457;-82
2023/07/15 10:21:03;;;;;;;2.70;2.00;;;;;;;;;;107582;1248;60195;-82
2023/07/15 10:23:32;;;;;;;4.50;1.90;;;;;;;;;;107645;1250;58914;-82
2023/07/15 10:26:01;;;;;;;2.80;1.60;;;;;;;;;;107801;1248;60533;-83
2023/07/15 10:28:34;;;;;;;2.30;1.50;;;;;;;;;;107485;1251;60432;-84
2023/07/15 10:31:08;;;;;;;6.20;2.20;;;;;;;;;;107637;1248;60460;-84
2023/07/15 10:33:35;;;;;;;3.70;2.30;;;;;;;;;;107551;1248;60371;-83
2023/07/15 10:36:01;;;;;;;;;;;;;;;;;;107902;1247;60526;-84
2023/07/15 10:38:28;;;;;;;2.60;1.80;;;;;;;;;;107550;1251;60435;-84
2023/07/15 10:40:55;;;;;;;;;;;;;;;;;;107677;1248;60351;-84
2023/07/15 10:43:34;;;;;;;2.80;1.80;;;;;;;;;;107654;1251;60420;-82
2023/07/15 10:46:07;;;;;;;2.00;1.70;;;;;;;;;;107559;1248;60542;-83
2023/07/15 10:48:33;;;;;;;3.70;1.60;;;;;;;;;;107308;1248;60361;-83
2023/07/15 10:51:02;;;;;;;2.60;1.80;;;;;;;;;;107357;1248;60614;-83
2023/07/15 10:53:32;;;;;;;3.30;1.90;;;;;;;;;;107289;1248;60273;-85
2023/07/15 10:56:02;;;;;;;3.50;1.60;;;;;;;;;;107260;1248;60467;-86
2023/07/15 10:58:29;;;;;;;3.20;1.80;;;;;;;;;;107317;1247;60507;-84
2023/07/15 11:00:57;;;;;;;8.70;3.40;;;;;;;;;;107325;1251;60348;-83
2023/07/15 11:03:23;;;;;;;2.20;1.60;;;;;;;;;;107301;1248;60415;-83
2023/07/15 11:05:50;;;;;;;2.50;1.70;;;;;;;;;;107333;1251;60521;-85
2023/07/15 11:08:19;;;;;;;4.30;1.90;;;;;;;;;;107201;1249;60425;-84
2023/07/15 11:10:45;;;;;;;4.30;2.00;;;;;;;;;;107234;1247;60466;-84
2023/07/15 11:13:15;;;;;;;3.10;1.60;;;;;;;;;;107299;1248;60546;-84
2023/07/15 11:15:43;;;;;;;2.60;1.80;;;;;;;;;;107299;1248;60442;-84
2023/07/15 11:18:16;;;;;;;2.80;1.50;;;;;;;;;;107297;1247;60385;-82
2023/07/15 11:20:46;;;;;;;1.50;1.20;;;;;;;;;;107386;1248;60336;-83
2023/07/15 11:23:13;;;;;;;4.50;1.50;;;;;;;;;;107249;1250;60414;-85
2023/07/15 11:25:39;;;;;;;4.00;1.90;;;;;;;;;;107384;1248;59434;-84
2023/07/15 11:28:06;;;;;;;3.10;1.50;;;;;;;;;;107365;1248;60402;-85
2023/07/15 11:30:35;;;;;;;3.00;1.90;;;;;;;;;;107270;1248;60412;-83
2023/07/15 11:33:03;;;;;;;7.30;2.00;;;;;;;;;;107298;1251;60466;-83
2023/07/15 11:35:30;;;;;;;4.40;2.00;;;;;;;;;;107253;1247;60505;-85
2023/07/15 11:37:56;;;;;;;2.00;1.50;;;;;;;;;;107286;1247;58911;-85
2023/07/15 11:40:22;;;;;;;3.40;2.00;;;;;;;;;;107288;1250;60502;-84
2023/07/15 11:42:49;;;;;;;2.00;1.40;;;;;;;;;;107273;1247;60955;-83
2023/07/15 11:45:15;;;;;;;3.90;1.50;;;;;;;;;;107271;1247;60610;-85
2023/07/15 11:47:42;;;;;;;1.90;1.20;;;;;;;;;;107269;1247;60498;-85
2023/07/15 11:50:12;;;;;;;4.40;1.70;;;;;;;;;;107240;1248;60390;-83
2023/07/15 11:52:39;;;;;;;1.90;1.20;;;;;;;;;;107324;1247;60431;-85
2023/07/15 11:55:05;;;;;;;1.60;1.20;;;;;;;;;;107264;1248;60524;-83
2023/07/15 11:57:32;;;;;;;4.00;1.10;;;;;;;;;;107302;1251;60585;-83
2023/07/15 11:59:58;;;;;;;2.90;1.40;;;;;;;;;;107228;1247;60533;-84
2023/07/15 12:02:24;;;;;;;1.80;1.20;;;;;;;;;;107343;1247;60293;-83
2023/07/15 12:04:51;;;;;;;2.30;1.90;;;;;;;;;;107269;1247;60523;-85
2023/07/15 12:07:19;;;;;;;3.60;1.60;;;;;;;;;;107499;1251;60486;-83
2023/07/15 12:09:45;;;;;;;4.70;1.70;;;;;;;;;;107584;1247;60540;-85
2023/07/15 12:12:12;;;;;;;2.80;1.60;;;;;;;;;;107495;1247;60506;-83
2023/07/15 12:14:39;;;;;;;1.40;1.00;;;;;;;;;;107364;1246;60460;-83
2023/07/15 12:17:05;;;;;;;2.10;1.50;;;;;;;;;;107655;1247;60328;-84
2023/07/15 12:19:32;;;;;;;5.20;1.50;;;;;;;;;;107581;1246;60512;-83
2023/07/15 12:21:59;;;;;;;1.40;1.20;;;;;;;;;;107586;1247;60484;-84
2023/07/15 12:24:25;;;;;;;2.30;1.90;;;;;;;;;;107592;1247;60414;-85
2023/07/15 12:26:51;;;;;;;2.20;1.50;;;;;;;;;;107403;1247;60411;-83
2023/07/15 12:29:18;;;;;;;4.50;1.80;;;;;;;;;;107632;1247;60425;-83
2023/07/15 12:31:46;;;;;;;2.10;1.10;;;;;;;;;;107634;1247;60507;-83
2023/07/15 12:34:12;;;;;;;3.40;1.60;;;;;;;;;;107325;1248;60475;-84
2023/07/15 12:36:40;;;;;;;4.70;1.60;;;;;;;;;;107354;1246;60453;-83
2023/07/15 12:39:06;;;;;;;1.70;1.30;;;;;;;;;;107613;1247;60408;-83
2023/07/15 12:41:33;;;;;;;2.20;1.60;;;;;;;;;;107347;1250;60428;-82
2023/07/15 12:44:00;;;;;;;2.50;1.50;;;;;;;;;;107318;1252;60358;-84
2023/07/15 12:46:26;;;;;;;2.20;1.10;;;;;;;;;;107541;1246;60469;-85
2023/07/15 12:48:53;;;;;;;3.40;1.60;;;;;;;;;;107561;1250;60552;-84
2023/07/15 12:51:20;;;;;;;2.50;1.40;;;;;;;;;;107589;1248;60554;-83
2023/07/15 12:53:46;;;;;;;1.90;1.50;;;;;;;;;;107374;1248;60999;-83
2023/07/15 12:56:13;;;;;;;;;;;;;;;;;;107360;1250;60531;-84
2023/07/15 12:58:40;;;;;;;1.50;1.40;;;;;;;;;;107309;1248;60443;-85
2023/07/15 13:01:07;;;;;;;3.00;2.00;;;;;;;;;;107321;1247;60447;-82
2023/07/15 13:03:33;;;;;;;2.10;1.90;;;;;;;;;;107296;1247;60410;-83
2023/07/15 13:05:59;;;;;;;1.70;1.50;;;;;;;;;;107392;1247;60675;-82
2023/07/15 13:08:26;;;;;;;3.10;2.00;;;;;;;;;;107330;1251;60404;-84
2023/07/15 13:10:52;;;;;;;2.40;1.60;;;;;;;;;;107210;1248;60470;-85
2023/07/15 13:13:18;;;;;;;1.80;1.70;;;;;;;;;;107320;1251;60476;-84
2023/07/15 13:15:45;;;;;;;1.80;1.50;;;;;;;;;;107283;1251;60548;-83
2023/07/15 13:18:12;;;;;;;2.90;1.80;;;;;;;;;;107304;1247;59122;-83
2023/07/15 13:20:38;;;;;;;3.50;1.40;;;;;;;;;;107335;1250;60475;-84
2023/07/15 13:23:04;;;;;;;2.60;1.90;;;;;;;;;;107278;1247;60462;-86
2023/07/15 13:25:31;;;;;;;3.10;1.30;;;;;;;;;;107386;1247;60419;-85
2023/07/15 13:27:57;;;;;;;1.50;1.20;;;;;;;;;;107374;1247;60528;-83
2023/07/15 13:30:24;;;;;;;2.10;1.40;;;;;;;;;;107307;1247;60409;-83
2023/07/15 13:32:50;;;;;;;5.20;1.80;;;;;;;;;;107354;1248;60675;-83
2023/07/15 13:35:17;;;;;;;3.40;1.40;;;;;;;;;;107393;1247;60547;-83
2023/07/15 13:37:43;;;;;;;1.90;1.60;;;;;;;;;;107310;1247;60459;-84
2023/07/15 13:40:10;;;;;;;3.40;1.60;;;;;;;;;;107303;1247;60393;-82
2023/07/15 13:42:36;;;;;;;4.30;2.20;;;;;;;;;;107263;1248;60307;-84
2023/07/15 13:45:03;;;;;;;2.90;1.50;;;;;;;;;;107352;1251;59589;-84
2023/07/15 13:47:29;;;;;;;4.20;1.80;;;;;;;;;;107302;1249;60997;-83
2023/07/15 13:49:55;;;;;;;2.70;2.40;;;;;;;;;;107310;1251;60543;-83
2023/07/15 13:52:22;;;;;;;2.50;2.10;;;;;;;;;;107295;1249;60441;-83
2023/07/15 13:54:49;;;;;;;;;;;;;;;;;;107148;1249;60534;-85
2023/07/15 13:57:15;;;;;;;1.80;1.60;;;;;;;;;;107189;1250;61178;-84
2023/07/15 13:59:41;;;;;;;3.40;1.70;;;;;;;;;;107164;1247;60422;-84
2023/07/15 14:02:12;;;;;;;4.50;1.90;;;;;;;;;;107204;1250;60560;-84
2023/07/15 14:04:38;;;;;;;3.40;1.90;;;;;;;;;;107136;1249;60386;-84
2023/07/15 14:07:04;;;;;;;3.40;1.80;;;;;;;;;;107150;1252;60542;-84
2023/07/15 14:09:31;;;;;;;2.40;1.60;;;;;;;;;;107276;1247;60534;-84
2023/07/15 14:11:57;;;;;;;3.30;1.90;;;;;;;;;;107297;1249;60407;-83
2023/07/15 14:14:24;;;;;;;8.50;1.80;;;;;;;;;;107251;1248;61130;-84
2023/07/15 14:16:50;;;;;;;2.70;2.10;;;;;;;;;;107339;1248;60445;-84
2023/07/15 14:19:17;;;;;;;4.90;1.70;;;;;;;;;;107341;1247;60533;-83
2023/07/15 14:21:43;;;;;;;2.10;1.60;;;;;;;;;;107373;1248;60554;-84
2023/07/15 14:24:09;;;;;;;5.20;1.70;;;;;;;;;;107318;1248;60432;-83
2023/07/15 14:26:36;;;;;;;1.90;1.40;;;;;;;;;;107286;1249;60555;-83